createdAt,value
2022-08-07T00:01:44.148Z,16.13
2022-08-07T00:04:09.573Z,16.05
2022-08-07T00:06:51.076Z,15.98
2022-08-07T00:09:22.297Z,15.92
2022-08-07T00:11:55.742Z,15.91
2022-08-07T00:14:30.339Z,15.90
2022-08-07T00:16:59.863Z,15.86
2022-08-07T00:19:34.305Z,15.78
2022-08-07T00:22:24.953Z,15.75
2022-08-07T00:25:05.137Z,15.71
2022-08-07T00:27:52.966Z,15.67
2022-08-07T00:30:27.000Z,15.55
2022-08-07T00:32:57.520Z,15.39
2022-08-07T00:35:29.827Z,15.35
2022-08-07T00:38:02.935Z,15.28
2022-08-07T00:40:39.775Z,15.12
2022-08-07T00:43:58.584Z,15.04
2022-08-07T00:45:59.346Z,14.90
2022-08-07T00:48:32.122Z,14.76
2022-08-07T00:51:02.749Z,14.67
2022-08-07T00:53:38.357Z,14.59
2022-08-07T00:56:15.374Z,14.47
2022-08-07T00:58:46.798Z,14.51
2022-08-07T01:01:16.915Z,14.51
2022-08-07T01:03:56.552Z,14.44
2022-08-07T01:06:30.267Z,14.36
2022-08-07T01:09:01.499Z,14.34
2022-08-07T01:12:23.931Z,14.33
2022-08-07T01:14:28.342Z,14.32
2022-08-07T01:16:57.963Z,14.22
2022-08-07T01:19:32.414Z,14.16
2022-08-07T01:22:04.093Z,14.14
2022-08-07T01:24:42.157Z,14.12
2022-08-07T01:27:19.998Z,14.10
2022-08-07T01:29:51.133Z,14.08
2022-08-07T01:32:22.582Z,14.08
2022-08-07T01:34:53.540Z,14.06
2022-08-07T01:37:23.456Z,14.01
2022-08-07T01:40:00.043Z,14.03
2022-08-07T01:42:39.982Z,14.01
2022-08-07T01:45:37.295Z,13.99
2022-08-07T01:48:19.472Z,13.93
2022-08-07T01:51:24.283Z,13.93
2022-08-07T01:54:11.693Z,13.89
2022-08-07T01:56:52.910Z,13.83
2022-08-07T01:59:30.946Z,13.84
2022-08-07T02:02:07.205Z,13.81
2022-08-07T02:04:55.992Z,13.82
2022-08-07T02:07:44.803Z,13.82
2022-08-07T02:10:26.828Z,13.80
2022-08-07T02:13:01.210Z,13.77
2022-08-07T02:15:39.852Z,13.73
2022-08-07T02:18:12.548Z,13.73
2022-08-07T02:20:48.690Z,13.70
2022-08-07T02:23:25.726Z,13.71
2022-08-07T02:26:30.952Z,13.73
2022-08-07T02:28:48.332Z,13.77
2022-08-07T02:31:28.706Z,13.76
2022-08-07T02:34:03.146Z,13.79
2022-08-07T02:36:38.604Z,13.80
2022-08-07T02:39:17.531Z,13.75
2022-08-07T02:42:10.170Z,13.74
2022-08-07T02:44:48.770Z,13.64
2022-08-07T02:47:23.810Z,13.64
2022-08-07T02:49:59.849Z,13.65
2022-08-07T02:52:38.574Z,13.66
2022-08-07T02:55:28.093Z,13.69
2022-08-07T02:58:06.502Z,13.67
2022-08-07T03:00:42.006Z,13.64
2022-08-07T03:03:22.681Z,13.62
2022-08-07T03:05:57.253Z,13.62
2022-08-07T03:08:29.319Z,13.62
2022-08-07T03:11:03.420Z,13.58
2022-08-07T03:13:49.537Z,13.57
2022-08-07T03:16:22.896Z,13.56
2022-08-07T03:18:52.966Z,13.52
2022-08-07T03:21:24.429Z,13.51
2022-08-07T03:24:20.820Z,13.50
2022-08-07T03:26:57.991Z,13.49
2022-08-07T03:29:37.587Z,13.46
2022-08-07T03:32:13.683Z,13.46
2022-08-07T03:34:47.395Z,13.47
2022-08-07T03:37:46.562Z,13.46
2022-08-07T03:40:27.438Z,13.46
2022-08-07T03:43:01.329Z,13.46
2022-08-07T03:45:35.067Z,13.44
2022-08-07T03:48:13.644Z,13.43
2022-08-07T03:50:54.875Z,13.41
2022-08-07T03:54:01.757Z,13.39
2022-08-07T03:56:33.362Z,13.35
2022-08-07T03:59:10.008Z,13.35
2022-08-07T04:01:47.031Z,13.32
2022-08-07T04:04:19.211Z,13.32
2022-08-07T04:06:52.931Z,13.33
2022-08-07T04:09:24.473Z,13.34
2022-08-07T04:12:27.782Z,13.30
2022-08-07T04:14:49.197Z,13.27
2022-08-07T04:17:24.677Z,13.26
2022-08-07T04:20:14.333Z,13.23
2022-08-07T04:22:53.526Z,13.26
2022-08-07T04:25:36.057Z,13.31
2022-08-07T04:28:13.337Z,13.33
2022-08-07T04:30:55.641Z,13.38
2022-08-07T04:33:37.080Z,13.39
2022-08-07T04:36:09.879Z,13.41
2022-08-07T04:38:39.507Z,13.43
2022-08-07T04:41:09.669Z,13.47
2022-08-07T04:44:12.022Z,13.42
2022-08-07T04:47:04.871Z,13.45
2022-08-07T04:50:04.263Z,13.50
2022-08-07T04:52:50.907Z,13.56
2022-08-07T04:58:12.232Z,13.66
2022-08-07T04:58:49.639Z,13.80
2022-08-07T05:01:32.015Z,13.94
2022-08-07T05:04:17.078Z,14.04
2022-08-07T05:07:00.360Z,14.16
2022-08-07T05:09:50.893Z,14.31
2022-08-07T05:12:30.616Z,14.50
2022-08-07T05:15:23.159Z,14.70
2022-08-07T05:18:00.619Z,15.03
2022-08-07T05:20:36.940Z,15.20
2022-08-07T05:23:16.368Z,15.49
2022-08-07T05:26:13.581Z,15.83
2022-08-07T05:28:48.631Z,16.14
2022-08-07T05:31:22.312Z,16.52
2022-08-07T05:34:04.640Z,16.89
2022-08-07T05:36:39.375Z,17.32
2022-08-07T05:40:16.783Z,17.63
2022-08-07T05:42:12.442Z,18.07
2022-08-07T05:44:52.809Z,18.38
2022-08-07T05:47:38.568Z,18.62
2022-08-07T05:50:21.702Z,18.94
2022-08-07T05:52:50.249Z,19.07
2022-08-07T05:55:23.241Z,19.30
2022-08-07T05:58:16.141Z,19.58
2022-08-07T06:00:51.058Z,19.58
2022-08-07T06:03:23.293Z,19.48
2022-08-07T06:05:56.585Z,19.57
2022-08-07T06:08:30.024Z,19.78
2022-08-07T06:11:03.954Z,19.97
2022-08-07T06:14:12.211Z,19.96
2022-08-07T06:16:29.175Z,20.06
2022-08-07T06:19:00.736Z,20.27
2022-08-07T06:22:14.500Z,20.58
2022-08-07T06:24:53.033Z,20.83
2022-08-07T06:27:08.612Z,21.09
2022-08-07T06:29:38.948Z,21.23
2022-08-07T06:32:08.210Z,21.31
2022-08-07T06:34:36.142Z,21.35
2022-08-07T06:37:10.685Z,21.56
2022-08-07T06:40:17.527Z,21.55
2022-08-07T06:42:37.750Z,21.73
2022-08-07T06:45:35.673Z,21.80
2022-08-07T06:48:06.587Z,21.93
2022-08-07T06:50:48.029Z,22.11
2022-08-07T06:54:11.795Z,22.50
2022-08-07T06:56:15.253Z,23.00
2022-08-07T07:00:11.600Z,23.23
2022-08-07T07:01:50.571Z,23.23
2022-08-07T07:04:32.670Z,23.59
2022-08-07T07:07:10.504Z,23.78
2022-08-07T07:09:52.678Z,23.96
2022-08-07T07:12:48.468Z,24.16
2022-08-07T07:15:26.347Z,24.19
2022-08-07T07:18:09.225Z,24.71
2022-08-07T07:20:45.621Z,24.99
2022-08-07T07:24:06.250Z,25.05
2022-08-07T07:26:31.717Z,25.17
2022-08-07T07:29:39.147Z,25.28
2022-08-07T07:32:09.383Z,25.61
2022-08-07T07:34:44.358Z,25.69
2022-08-07T07:37:22.122Z,26.06
2022-08-07T07:40:15.164Z,26.04
2022-08-07T07:42:47.166Z,25.97
2022-08-07T07:46:37.413Z,26.20
2022-08-07T07:48:24.344Z,26.21
2022-08-07T07:51:08.152Z,26.42
2022-08-07T07:53:52.667Z,26.52
2022-08-07T07:56:29.705Z,26.71
2022-08-07T07:59:02.768Z,27.16
2022-08-07T08:02:03.109Z,27.44
2022-08-07T08:04:27.441Z,27.44
2022-08-07T08:06:56.214Z,27.36
2022-08-07T08:09:29.272Z,27.39
2022-08-07T08:12:05.037Z,27.37
2022-08-07T08:14:37.029Z,27.77
2022-08-07T08:17:56.389Z,28.01
2022-08-07T08:20:17.493Z,28.60
2022-08-07T08:23:15.337Z,28.53
2022-08-07T08:26:07.250Z,28.29
2022-08-07T08:28:43.293Z,28.44
2022-08-07T08:31:29.868Z,28.44
2022-08-07T08:34:01.357Z,28.81
2022-08-07T08:36:35.864Z,29.32
2022-08-07T08:39:08.796Z,29.73
2022-08-07T08:41:58.137Z,29.67
2022-08-07T08:44:41.401Z,29.69
2022-08-07T08:47:25.063Z,30.14
2022-08-07T08:50:05.669Z,30.19
2022-08-07T08:52:53.653Z,30.38
2022-08-07T08:55:54.993Z,30.24
2022-08-07T08:58:33.916Z,30.13
2022-08-07T09:01:14.531Z,30.27
2022-08-07T09:03:56.624Z,30.50
2022-08-07T09:06:47.669Z,30.04
2022-08-07T09:09:57.040Z,29.92
2022-08-07T09:12:53.563Z,30.14
2022-08-07T09:16:24.060Z,30.73
2022-08-07T09:19:07.026Z,30.96
2022-08-07T09:22:39.991Z,31.16
2022-08-07T09:25:17.452Z,30.30
2022-08-07T09:28:01.462Z,30.27
2022-08-07T09:30:51.652Z,30.46
2022-08-07T09:33:56.582Z,30.63
2022-08-07T09:36:37.278Z,30.76
2022-08-07T09:39:55.250Z,30.13
2022-08-07T09:42:46.728Z,30.35
2022-08-07T09:47:25.465Z,30.80
2022-08-07T09:48:56.112Z,30.96
2022-08-07T09:52:16.758Z,30.39
2022-08-07T09:54:50.202Z,30.58
2022-08-07T09:58:09.328Z,31.22
2022-08-07T10:01:00.589Z,31.96
2022-08-07T10:04:05.293Z,32.31
2022-08-07T10:07:02.129Z,31.40
2022-08-07T10:10:11.926Z,32.13
2022-08-07T10:13:54.961Z,32.10
2022-08-07T10:16:30.232Z,32.38
2022-08-07T10:19:21.398Z,32.49
2022-08-07T10:22:14.559Z,32.61
2022-08-07T10:24:57.422Z,31.98
2022-08-07T10:27:51.368Z,31.25
2022-08-07T10:30:32.848Z,30.99
2022-08-07T10:34:06.172Z,30.12
2022-08-07T10:36:36.417Z,30.47
2022-08-07T10:39:25.706Z,30.91
2022-08-07T10:42:30.892Z,31.63
2022-08-07T10:45:17.297Z,31.90
2022-08-07T10:48:05.124Z,32.47
2022-08-07T10:50:49.989Z,32.90
2022-08-07T10:53:41.780Z,32.84
2022-08-07T10:56:31.492Z,33.06
2022-08-07T10:59:13.621Z,33.45
2022-08-07T11:02:05.045Z,34.21
2022-08-07T11:05:13.667Z,34.46
2022-08-07T11:08:01.171Z,34.87
2022-08-07T11:10:49.985Z,35.00
2022-08-07T11:14:44.468Z,35.14
2022-08-07T11:16:29.937Z,35.16
2022-08-07T11:19:07.013Z,34.27
2022-08-07T11:21:45.405Z,33.24
2022-08-07T11:24:23.979Z,32.22
2022-08-07T11:27:13.647Z,32.01
2022-08-07T11:30:10.161Z,31.38
2022-08-07T11:32:52.759Z,31.11
2022-08-07T11:35:30.757Z,31.77
2022-08-07T11:38:18.152Z,32.07
2022-08-07T11:40:58.049Z,32.64
2022-08-07T11:43:54.999Z,32.86
2022-08-07T11:46:42.048Z,32.08
2022-08-07T11:50:18.499Z,31.30
2022-08-07T11:52:45.644Z,30.52
2022-08-07T11:56:24.823Z,31.24
2022-08-07T11:58:38.464Z,31.70
2022-08-07T12:02:00.718Z,31.56
2022-08-07T12:04:45.742Z,32.41
2022-08-07T12:07:27.617Z,32.51
2022-08-07T12:10:17.850Z,32.92
2022-08-07T12:13:00.569Z,33.30
2022-08-07T12:15:46.507Z,33.99
2022-08-07T12:18:35.043Z,34.47
2022-08-07T12:21:55.632Z,34.97
2022-08-07T12:24:37.961Z,35.84
2022-08-07T12:27:16.748Z,35.96
2022-08-07T12:29:56.929Z,36.04
2022-08-07T12:32:39.613Z,36.31
2022-08-07T12:35:12.899Z,35.74
2022-08-07T12:38:09.681Z,35.85
2022-08-07T12:40:48.562Z,34.69
2022-08-07T12:44:02.762Z,33.55
2022-08-07T12:46:32.432Z,33.09
2022-08-07T12:49:25.541Z,33.41
2022-08-07T12:52:14.443Z,33.73
2022-08-07T12:55:03.922Z,34.07
2022-08-07T12:58:00.770Z,34.09
2022-08-07T13:00:50.181Z,34.17
2022-08-07T13:04:02.723Z,35.11
2022-08-07T13:07:05.105Z,36.16
2022-08-07T13:10:29.342Z,36.68
2022-08-07T13:13:46.809Z,37.40
2022-08-07T13:16:17.128Z,36.13
2022-08-07T13:19:11.323Z,36.37
2022-08-07T13:22:00.621Z,36.11
2022-08-07T13:24:53.943Z,35.92
2022-08-07T13:28:12.706Z,36.22
2022-08-07T13:30:40.600Z,35.73
2022-08-07T13:34:29.942Z,34.36
2022-08-07T13:36:26.079Z,33.15
2022-08-07T13:39:12.749Z,32.23
2022-08-07T13:41:54.747Z,31.43
2022-08-07T13:44:26.786Z,30.74
2022-08-07T13:47:09.462Z,30.30
2022-08-07T13:50:35.745Z,29.97
2022-08-07T13:52:41.426Z,29.61
2022-08-07T13:55:19.666Z,29.42
2022-08-07T13:58:28.008Z,29.81
2022-08-07T14:01:09.162Z,30.19
2022-08-07T14:04:05.336Z,30.24
2022-08-07T14:06:36.916Z,30.50
2022-08-07T14:10:00.452Z,31.17
2022-08-07T14:12:07.196Z,32.27
2022-08-07T14:14:43.312Z,32.87
2022-08-07T14:18:13.062Z,33.46
2022-08-07T14:20:43.015Z,33.96
2022-08-07T14:23:11.387Z,33.79
2022-08-07T14:25:47.901Z,33.41
2022-08-07T14:28:19.196Z,31.91
2022-08-07T14:30:51.912Z,32.65
2022-08-07T14:33:23.401Z,33.64
2022-08-07T14:35:56.513Z,33.32
2022-08-07T14:38:33.361Z,32.81
2022-08-07T14:41:06.204Z,32.41
2022-08-07T14:43:58.429Z,32.77
2022-08-07T14:46:33.939Z,33.52
2022-08-07T14:52:05.125Z,33.43
2022-08-07T14:54:43.459Z,33.22
2022-08-07T14:57:19.657Z,33.19
2022-08-07T15:00:05.322Z,33.14
2022-08-07T15:02:39.229Z,33.60
2022-08-07T15:05:20.059Z,33.57
2022-08-07T15:07:52.019Z,34.28
2022-08-07T15:10:29.593Z,34.78
2022-08-07T15:13:06.356Z,34.81
2022-08-07T15:15:52.763Z,34.57
2022-08-07T15:18:34.775Z,34.66
2022-08-07T15:25:13.285Z,34.19
2022-08-07T15:27:20.578Z,34.29
2022-08-07T15:30:08.799Z,34.43
2022-08-07T15:33:01.465Z,34.44
2022-08-07T15:36:00.345Z,34.66
2022-08-07T15:38:51.022Z,34.32
2022-08-07T15:44:18.760Z,34.22
2022-08-07T15:46:53.972Z,34.00
2022-08-07T15:50:05.584Z,33.54
2022-08-07T15:52:29.626Z,33.61
2022-08-07T15:55:03.815Z,33.65
2022-08-07T15:57:39.750Z,33.51
2022-08-07T16:00:32.214Z,33.58
2022-08-07T16:03:20.900Z,33.57
2022-08-07T16:05:59.104Z,33.64
2022-08-07T16:08:38.660Z,33.29
2022-08-07T16:11:26.528Z,32.79
2022-08-07T16:14:06.899Z,32.14
2022-08-07T16:16:56.831Z,31.99
2022-08-07T16:19:58.704Z,31.63
2022-08-07T16:22:55.057Z,31.91
2022-08-07T16:25:55.505Z,31.75
2022-08-07T16:30:08.246Z,30.98
2022-08-07T16:32:03.802Z,30.87
2022-08-07T16:34:48.634Z,30.37
2022-08-07T16:38:06.231Z,30.23
2022-08-07T16:41:22.281Z,29.77
2022-08-07T16:44:40.205Z,29.99
2022-08-07T16:47:51.265Z,29.74
2022-08-07T16:50:48.447Z,29.47
2022-08-07T16:54:16.729Z,29.39
2022-08-07T16:58:02.804Z,29.52
2022-08-07T17:00:29.383Z,29.38
2022-08-07T17:03:17.802Z,29.36
2022-08-07T17:06:30.683Z,29.35
2022-08-07T17:09:14.160Z,29.65
2022-08-07T17:12:33.928Z,29.54
2022-08-07T17:15:07.413Z,29.71
2022-08-07T17:17:46.891Z,29.53
2022-08-07T17:20:31.163Z,29.14
2022-08-07T17:23:11.609Z,28.79
2022-08-07T17:26:01.676Z,28.74
2022-08-07T17:28:38.252Z,28.49
2022-08-07T17:31:17.330Z,28.52
2022-08-07T17:34:15.384Z,28.37
2022-08-07T17:36:59.703Z,28.14
2022-08-07T17:39:58.166Z,28.22
2022-08-07T17:42:59.277Z,28.01
2022-08-07T17:45:36.134Z,27.80
2022-08-07T17:48:24.654Z,27.40
2022-08-07T17:51:11.526Z,27.37
2022-08-07T17:54:00.520Z,27.17
2022-08-07T17:56:34.810Z,26.92
2022-08-07T17:59:17.049Z,26.83
2022-08-07T18:02:00.607Z,26.91
2022-08-07T18:04:39.972Z,26.63
2022-08-07T18:07:34.355Z,26.40
2022-08-07T18:10:32.000Z,26.35
2022-08-07T18:13:15.334Z,26.22
2022-08-07T18:15:58.682Z,26.12
2022-08-07T18:21:02.951Z,26.07
2022-08-07T18:21:51.900Z,25.94
2022-08-07T18:24:33.177Z,25.89
2022-08-07T18:27:57.337Z,25.68
2022-08-07T18:30:38.029Z,25.56
2022-08-07T18:33:55.633Z,25.47
2022-08-07T18:36:39.625Z,25.35
2022-08-07T18:40:06.559Z,25.30
2022-08-07T18:42:27.663Z,25.18
2022-08-07T18:45:44.895Z,25.01
2022-08-07T18:48:10.023Z,24.92
2022-08-07T18:51:18.611Z,24.89
2022-08-07T18:54:33.115Z,24.82
2022-08-07T18:57:39.983Z,24.70
2022-08-07T19:00:32.591Z,24.62
2022-08-07T19:03:12.282Z,24.62
2022-08-07T19:06:03.557Z,24.57
2022-08-07T19:08:52.095Z,24.41
2022-08-07T19:11:38.687Z,24.25
2022-08-07T19:14:50.896Z,24.03
2022-08-07T19:18:01.087Z,24.01
2022-08-07T19:20:37.398Z,23.90
2022-08-07T19:23:18.013Z,23.87
2022-08-07T19:26:21.817Z,23.75
2022-08-07T19:30:55.280Z,23.68
2022-08-07T19:32:10.678Z,23.53
2022-08-07T19:34:36.239Z,23.43
2022-08-07T19:37:17.469Z,23.39
2022-08-07T19:39:57.907Z,23.31
2022-08-07T19:42:40.147Z,23.29
2022-08-07T19:46:04.814Z,23.14
2022-08-07T19:48:18.437Z,22.93
2022-08-07T19:50:54.446Z,22.90
2022-08-07T19:54:35.359Z,22.79
2022-08-07T19:58:01.693Z,22.76
2022-08-07T19:59:15.543Z,22.72
2022-08-07T20:01:52.966Z,22.61
2022-08-07T20:04:31.492Z,22.58
2022-08-07T20:07:03.463Z,22.60
2022-08-07T20:10:36.070Z,22.52
2022-08-07T20:12:39.330Z,22.42
2022-08-07T20:15:22.167Z,22.35
2022-08-07T20:18:01.376Z,22.33
2022-08-07T20:20:33.631Z,22.29
2022-08-07T20:23:23.308Z,22.26
2022-08-07T20:26:04.310Z,22.23
2022-08-07T20:28:42.544Z,22.21
2022-08-07T20:31:21.631Z,22.16
2022-08-07T20:34:00.783Z,22.07
2022-08-07T20:36:31.198Z,22.06
2022-08-07T20:39:17.750Z,22.02
2022-08-07T20:41:53.208Z,21.97
2022-08-07T20:44:30.922Z,21.90
2022-08-07T20:47:09.302Z,21.82
2022-08-07T20:49:59.299Z,21.78
2022-08-07T20:52:51.879Z,21.68
2022-08-07T20:55:25.481Z,21.66
2022-08-07T20:58:02.437Z,21.60
2022-08-07T21:00:44.204Z,21.55
2022-08-07T21:03:19.153Z,21.48
2022-08-07T21:06:12.444Z,21.42
2022-08-07T21:09:01.025Z,21.38
2022-08-07T21:11:46.143Z,21.39
2022-08-07T21:14:33.271Z,21.30
2022-08-07T21:18:02.258Z,21.20
2022-08-07T21:20:00.894Z,21.08
2022-08-07T21:22:44.815Z,21.05
2022-08-07T21:25:29.170Z,20.95
2022-08-07T21:28:16.614Z,20.95
2022-08-07T21:30:57.226Z,20.91
2022-08-07T21:33:41.668Z,20.77
2022-08-07T21:36:32.065Z,20.77
2022-08-07T21:39:44.973Z,20.66
2022-08-07T21:42:40.905Z,20.64
2022-08-07T21:46:05.169Z,20.61
2022-08-07T21:48:27.691Z,20.45
2022-08-07T21:51:19.573Z,20.44
2022-08-07T21:54:00.997Z,20.35
2022-08-07T21:56:48.244Z,20.27
2022-08-07T22:00:02.960Z,20.22
2022-08-07T22:02:34.001Z,20.19
2022-08-07T22:05:06.102Z,20.09
2022-08-07T22:07:58.189Z,20.13
2022-08-07T22:10:33.849Z,20.09
2022-08-07T22:13:09.256Z,20.01
2022-08-07T22:16:40.235Z,20.02
2022-08-07T22:18:47.886Z,19.96
2022-08-07T22:21:20.770Z,19.95
2022-08-07T22:23:58.037Z,19.84
2022-08-07T22:26:35.102Z,19.85
2022-08-07T22:29:33.754Z,19.83
2022-08-07T22:32:20.298Z,19.63
2022-08-07T22:34:54.619Z,19.53
2022-08-07T22:38:03.286Z,19.44
2022-08-07T22:40:35.817Z,19.40
2022-08-07T22:43:12.393Z,19.35
2022-08-07T22:46:21.813Z,19.26
2022-08-07T22:49:09.677Z,19.20
2022-08-07T22:52:01.383Z,19.19
2022-08-07T22:55:22.687Z,19.22
2022-08-07T22:58:28.050Z,19.09
2022-08-07T23:01:17.727Z,19.12
2022-08-07T23:04:06.904Z,19.09
2022-08-07T23:06:59.705Z,19.08
2022-08-07T23:10:05.321Z,18.98
2022-08-07T23:13:05.055Z,18.97
2022-08-07T23:16:07.249Z,18.91
2022-08-07T23:19:13.952Z,18.87
2022-08-07T23:21:56.301Z,18.85
2022-08-07T23:24:45.779Z,18.90
2022-08-07T23:28:20.443Z,18.82
2022-08-07T23:31:05.576Z,18.80
2022-08-07T23:34:21.158Z,18.70
2022-08-07T23:37:22.464Z,18.64
2022-08-07T23:40:14.474Z,18.63
2022-08-07T23:43:00.668Z,18.59
2022-08-07T23:46:03.164Z,18.59
2022-08-07T23:49:19.098Z,18.53
2022-08-07T23:53:05.839Z,18.46
2022-08-07T23:54:53.106Z,18.43
2022-08-07T23:57:30.708Z,18.38
